• Join FlightAware (Why Join?)
  • Login
  • US Flag 
12:38AM EDT


 

Airport Tracker/Info


-or-


 

Live Flight TrackerFlight Track Log ✈ N1926A ✈ 24-Jun-2014 ✈ KPWK - 41A

Flight Track Log - Related Links

Times and Time Zones

All times are in EDT time to prevent confusion due to time zone crossing. See the N1926A flight status page for this flight to view local times or setup timezone preferences in your user account.

Time Position Orientation Groundspeed Altitude Reporting Facility
EDT Latitude Longitude Course Direction KTS MPH feet Rate Location/Type
01:20PM 42.1711 -87.9347 32° Northeast 154 177 3,300  Level Chicago Center
01:21PM 42.1986 -87.9119 32° Northeast 176 203 4,800 1,260 Climbing Chicago Center
01:22PM 42.1464 -87.8911 164° South 216 249 6,000 960 Climbing Chicago Center
01:23PM 42.0753 -87.9156 194° South 248 285 6,900 1,500 Climbing Chicago Center
01:24PM 42.0231 -87.9303 192° South 194 223 9,200 2,040 Climbing Chicago Center
01:25PM 41.9661 -87.9367 185° South 193 222 11,200 1,800 Climbing Chicago Center
01:27PM 41.9136 -87.9461 188° South 192 221 13,000 1,740 Climbing Chicago Center
01:28PM 41.8556 -87.9556 187° South 194 223 14,900 1,620 Climbing Chicago Center
01:29PM 41.8031 -87.9658 188° South 192 221 16,400 1,440 Climbing Chicago Center
01:30PM 41.7467 -87.9778 189° South 190 219 17,900 1,200 Climbing Chicago Center
01:31PM 41.7039 -87.9881 190° South 187 215 19,000 1,200 Climbing Chicago Center
01:32PM 41.6403 -88.0014 189° South 189 217 20,500 1,200 Climbing Chicago Center
01:33PM 41.5881 -88.0136 190° South 189 217 21,600 960 Climbing Chicago Center
01:34PM 41.5350 -88.0258 190° South 193 222 22,600 960 Climbing Chicago Center
01:35PM 41.4778 -88.0392 190° South 200 230 23,600 660 Climbing Chicago Center
01:36PM 41.4197 -88.0506 188° South 205 236 24,000 240 Climbing Chicago Center
01:37PM 41.3539 -88.0622 188° South 223 257 24,100 480 Climbing Chicago Center
01:38PM 41.2825 -88.0756 188° South 239 275 25,000 840 Climbing Chicago Center
01:39PM 41.2214 -88.0900 190° South 228 262 25,900 480 Climbing Chicago Center
01:40PM 41.1464 -88.1144 194° South 229 264 26,000  Climbing Chicago Center
01:41PM 41.0758 -88.1347 192° South 254 292 26,000  Level Chicago Center
01:42PM 41.0050 -88.1558 193° South 257 296 26,000  Level Chicago Center
01:43PM 40.9325 -88.1761 192° South 265 305 26,000  Level Chicago Center
01:44PM 40.8608 -88.1978 193° South 265 305 26,000  Level Chicago Center
01:45PM 40.7886 -88.2164 191° South 265 305 26,000  Level Chicago Center
01:46PM 40.7003 -88.2406 192° South 270 311 26,000  Level Chicago Center
01:47PM 40.6275 -88.2667 195° South 270 311 26,000  Level Chicago Center
01:48PM 40.5556 -88.2967 198° South 271 312 26,000  Level Chicago Center
01:49PM 40.4836 -88.3269 198° South 271 312 26,000  Level Chicago Center
01:50PM 40.4122 -88.3583 199° South 271 312 26,000  Level Chicago Center
01:51PM 40.3408 -88.3881 198° South 270 311 26,000  Level Chicago Center
01:52PM 40.2556 -88.4236 198° South 270 311 26,000  Level Chicago Center
01:53PM 40.1836 -88.4519 197° South 270 311 26,000  Level Chicago Center
01:54PM 40.1100 -88.4786 195° South 271 312 26,000  Level Chicago Center
01:55PM 40.0372 -88.5064 196° South 271 312 26,000  Level Chicago Center
01:57PM 39.9636 -88.5342 196° South 272 313 26,000  Level Chicago Center
01:58PM 39.8917 -88.5614 196° South 272 313 26,000  Level Chicago Center
01:58PM 39.8328 -88.5850 197° South 271 312 26,000  Level Kansas City Center
01:59PM 39.7614 -88.6144 198° South 271 312 26,000  Level Kansas City Center
02:00PM 39.6900 -88.6433 197° South 271 312 26,000  Level Kansas City Center
02:01PM 39.6050 -88.6778 197° South 269 310 26,000  Level Kansas City Center
02:02PM 39.5344 -88.7058 197° South 268 308 26,000  Level Kansas City Center
02:04PM 39.4644 -88.7331 197° South 267 307 26,000  Level Kansas City Center
02:05PM 39.3878 -88.7611 196° South 264 304 26,000  Level Kansas City Center
02:06PM 39.3167 -88.7872 196° South 264 304 26,000  Level Kansas City Center
02:07PM 39.2461 -88.8131 196° South 264 304 26,000  Level Kansas City Center
02:08PM 39.1767 -88.8400 197° South 264 304 26,000  Level Kansas City Center
02:09PM 39.1061 -88.8678 197° South 264 304 26,000  Level Kansas City Center
02:10PM 39.0369 -88.8939 196° South 264 304 26,000  Level Kansas City Center
02:11PM 38.9547 -88.9283 198° South 262 302 26,000  Level Kansas City Center
02:12PM 38.8858 -88.9533 196° South 261 300 26,000  Level Kansas City Center
02:13PM 38.8161 -88.9794 196° South 261 300 26,000  Level Kansas City Center
02:14PM 38.7469 -89.0064 197° South 261 300 26,000  Level Kansas City Center
02:15PM 38.6783 -89.0319 196° South 260 299 26,000  Level Kansas City Center
02:16PM 38.6044 -89.0600 197° South 260 299 26,000  Level Kansas City Center
02:17PM 38.5364 -89.0861 197° South 258 297 26,000  Level Kansas City Center
02:18PM 38.4525 -89.1161 196° South 258 297 26,000  Level Kansas City Center
02:19PM 38.3850 -89.1406 196° South 254 292 26,000  Level Kansas City Center
02:20PM 38.3203 -89.1658 197° South 259 298 26,000  Level Kansas City Center
02:21PM 38.2525 -89.1917 197° South 258 297 26,000  Level Kansas City Center
02:22PM 38.1850 -89.2186 197° South 256 295 26,000  Level Kansas City Center
02:23PM 38.1044 -89.2506 197° South 256 295 26,000  Level Kansas City Center
02:24PM 38.0369 -89.2767 197° South 254 292 26,000  Level Kansas City Center
02:25PM 37.9689 -89.3031 197° South 254 292 26,000  Level Kansas City Center
02:26PM 37.9011 -89.3269 196° South 254 292 26,000  Level Kansas City Center
02:27PM 37.8256 -89.3550 196° South 254 292 26,000  Level Kansas City Center
02:28PM 37.7586 -89.3797 196° South 253 291 26,000  Level Kansas City Center
02:29PM 37.6897 -89.3989 192° South 252 290 26,000  Level Kansas City Center
02:30PM 37.6206 -89.3708 162° South 255 293 26,000  Level Kansas City Center
02:31PM 37.5506 -89.3492 166° South 256 295 26,000  Level Kansas City Center
02:32PM 37.4653 -89.3247 167° South 258 297 26,000  Level Kansas City Center
02:34PM 37.3958 -89.2961 162° South 258 297 26,000  Level Kansas City Center
02:34PM 37.3400 -89.2706 160° South 260 299 26,000  Level Memphis Center
02:35PM 37.2725 -89.2397 160° South 260 299 26,000  Level Memphis Center
02:36PM 37.2050 -89.2106 161° South 259 298 26,000  Level Memphis Center
02:37PM 37.1247 -89.1744 160° South 258 297 26,000  Level Memphis Center
02:39PM 37.0592 -89.1447 160° South 253 291 26,000  Level Memphis Center
02:40PM 36.9925 -89.1144 160° South 253 291 26,000  Level Memphis Center
02:41PM 36.9258 -89.0847 160° South 253 291 26,000  Level Memphis Center
02:42PM 36.8592 -89.0558 161° South 253 291 26,000  Level Memphis Center
02:43PM 36.8072 -89.0025 141° Southeast 257 296 26,000  Level Memphis Center
02:44PM 36.7728 -88.9208 118° Southeast 260 299 26,000  Level Memphis Center
02:45PM 36.7336 -88.8222 116° Southeast 261 300 26,000  Level Memphis Center
02:46PM 36.6953 -88.7442 121° Southeast 262 302 26,000  Level Memphis Center
02:47PM 36.6394 -88.6847 139° Southeast 259 298 26,000  Level Memphis Center
02:48PM 36.5789 -88.6306 144° Southeast 261 300 26,000  Level Memphis Center
02:49PM 36.5186 -88.5753 144° Southeast 263 303 26,000  Level Memphis Center
02:50PM 36.4589 -88.5200 143° Southeast 265 305 26,000  Level Memphis Center
02:51PM 36.3994 -88.4650 143° Southeast 265 305 26,000  Level Memphis Center
02:52PM 36.3289 -88.3994 143° Southeast 265 305 26,000  Level Memphis Center
02:53PM 36.2706 -88.3453 143° Southeast 264 304 26,000  Level Memphis Center
02:54PM 36.2133 -88.2903 142° Southeast 264 304 26,000  Level Memphis Center
02:55PM 36.1544 -88.2358 143° Southeast 264 304 26,000  Level Memphis Center
02:56PM 36.0972 -88.1811 142° Southeast 263 303 26,000  Level Memphis Center
02:57PM 36.0358 -88.1214 142° Southeast 263 303 26,000  Level Memphis Center
02:58PM 35.9778 -88.0656 142° Southeast 263 303 26,000 120 Level Memphis Center
02:59PM 35.9217 -88.0114 142° Southeast 260 299 26,300 480 Climbing Memphis Center
03:00PM 35.8594 -87.9506 142° Southeast 247 284 27,000 300 Climbing Memphis Center
03:01PM 35.8058 -87.8983 142° Southeast 243 280 27,000  Level Memphis Center
03:02PM 35.7514 -87.8453 142° Southeast 244 281 27,000  Level Memphis Center
03:03PM 35.6919 -87.7897 143° Southeast 258 297 27,000  Level Memphis Center
03:04PM 35.6350 -87.7325 141° Southeast 261 300 27,000  Level Memphis Center
03:05PM 35.5772 -87.6772 142° Southeast 261 300 27,000  Level Memphis Center
03:06PM 35.5194 -87.6206 141° Southeast 261 300 27,000  Level Memphis Center
03:07PM 35.4514 -87.5567 143° Southeast 261 300 27,000  Level Memphis Center
03:08PM 35.3942 -87.5003 141° Southeast 261 300 27,000  Level Memphis Center
03:10PM 35.3353 -87.4425 141° Southeast 262 302 27,000  Level Memphis Center
03:11PM 35.2767 -87.3869 142° Southeast 264 304 27,000  Level Memphis Center
03:12PM 35.2200 -87.3333 142° Southeast 264 304 27,000  Level Memphis Center
03:13PM 35.1625 -87.2778 142° Southeast 263 303 27,000  Level Memphis Center
03:14PM 35.1050 -87.2228 142° Southeast 263 303 27,000  Level Memphis Center
03:15PM 35.0361 -87.1578 142° Southeast 263 303 27,000  Level Memphis Center
03:16PM 34.9783 -87.1028 142° Southeast 263 303 27,000  Level Memphis Center
03:17PM 34.9242 -87.0425 138° Southeast 263 303 27,000  Level Memphis Center
03:18PM 34.8681 -86.9819 138° Southeast 265 305 27,000  Level Memphis Center
03:19PM 34.8128 -86.9217 138° Southeast 265 305 27,000  Level Memphis Center
03:20PM 34.7578 -86.8608 138° Southeast 265 305 27,000  Level Memphis Center
03:21PM 34.6914 -86.7881 138° Southeast 266 306 27,000  Level Memphis Center
03:22PM 34.6319 -86.7369 145° Southeast 265 305 27,000  Level Memphis Center
03:23PM 34.5675 -86.6978 153° Southeast 262 302 27,000  Level Memphis Center
03:24PM 34.5008 -86.6644 158° South 261 300 27,000  Level Memphis Center
03:25PM 34.4336 -86.6344 160° South 260 299 27,000  Level Memphis Center
03:26PM 34.3633 -86.6067 162° South 260 299 27,000  Level Memphis Center
03:27PM 34.2781 -86.5758 163° South 263 303 27,000 -60 Level Memphis Center
03:28PM 34.2075 -86.5511 164° South 263 303 26,900  Descending Memphis Center
03:30PM 34.0806 -86.4992 161° South 258 297 27,000  Climbing Atlanta Center
03:31PM 34.0081 -86.4719 163° South 258 297 27,000  Level Atlanta Center
03:32PM 33.9400 -86.4425 160° South 258 297 27,000  Level Atlanta Center
03:33PM 33.8717 -86.4131 160° South 258 297 27,000  Level Atlanta Center
03:34PM 33.8033 -86.3861 162° South 258 297 27,000 -780 Level Atlanta Center
03:35PM 33.7286 -86.3567 162° South 264 304 25,500 -1,500 Descending Atlanta Center
03:36PM 33.6478 -86.3247 162° South 282 325 24,000 -1,500 Descending Atlanta Center
03:37PM 33.5814 -86.2978 161° South 296 341 22,500 -1,740 Descending Atlanta Center
03:38PM 33.4944 -86.2608 160° South 301 346 20,600 -1,800 Descending Atlanta Center
03:39PM 33.4158 -86.2264 160° South 308 354 18,900 -1,560 Descending Atlanta Center
03:40PM 33.3350 -86.1919 160° South 302 348 17,500 -1,500 Descending Atlanta Center
03:41PM 33.2561 -86.1678 166° South 302 348 15,900 -1,680 Descending Atlanta Center
03:42PM 33.1694 -86.1183 154° Southeast 307 353 14,400 -1,560 Descending Atlanta Center
03:43PM 33.0964 -86.1044 171° South 297 342 12,800 -1,440 Descending Atlanta Center
03:44PM 33.0197 -86.0753 162° South 302 348 11,400 -960 Descending Atlanta Center
03:45PM 32.9450 -86.0439 161° South 302 348 10,900 -1,560 Descending Atlanta Center
03:46PM 32.8600 -86.0072 160° South 298 343 8,500 -2,100 Descending Atlanta Center
03:47PM 32.7958 -85.9836 163° South 295 339 6,800 -1,500 Descending Atlanta Center
03:48PM 32.7189 -85.9572 164° South 285 328 5,400 2,100 Descending Atlanta Center
03:49PM 32.6422 -85.9308 164° South 285 328 11,000 2,760 Climbing Atlanta Center
03:50PM 32.5694 -85.9047 163° South 285 328 11,000  Level Atlanta Center
03:52PM 32.5149 -85.8762 157° South  Level Estimated
03:59PM 32.5149 -85.8762 157° South  Level Estimated
04:00PM 32.5149 -85.8762 152° Southeast  Level Estimated
04:01PM 32.5149 -85.8762 157° South  Level Estimated